createdAt,value
2018-09-04T00:01:26.317Z,19.31
2018-09-04T00:03:56.697Z,19.28
2018-09-04T00:06:27.726Z,19.29
2018-09-04T00:08:58.200Z,19.31
2018-09-04T00:11:28.769Z,19.32
2018-09-04T00:13:59.270Z,19.33
2018-09-04T00:16:29.895Z,19.34
2018-09-04T00:19:00.168Z,19.34
2018-09-04T00:21:30.742Z,19.36
2018-09-04T00:24:01.574Z,19.36
2018-09-04T00:26:32.384Z,19.35
2018-09-04T00:29:02.704Z,19.31
2018-09-04T00:31:33.221Z,19.33
2018-09-04T00:34:03.559Z,19.29
2018-09-04T00:36:37.194Z,19.26
2018-09-04T00:39:07.937Z,19.24
2018-09-04T00:41:38.258Z,19.25
2018-09-04T00:44:08.513Z,19.20
2018-09-04T00:46:38.913Z,19.21
2018-09-04T00:49:09.400Z,19.16
2018-09-04T00:51:39.880Z,19.14
2018-09-04T00:54:10.132Z,19.14
2018-09-04T00:56:40.640Z,19.12
2018-09-04T00:59:10.992Z,19.08
2018-09-04T01:01:42.374Z,19.06
2018-09-04T01:04:12.794Z,19.03
2018-09-04T01:06:43.239Z,19.00
2018-09-04T01:09:18.962Z,19.00
2018-09-04T01:11:49.292Z,18.99
2018-09-04T01:14:19.710Z,18.99
2018-09-04T01:16:50.021Z,19.02
2018-09-04T01:19:20.613Z,18.99
2018-09-04T01:21:50.953Z,19.00
2018-09-04T01:24:21.421Z,18.99
2018-09-04T01:26:51.749Z,19.00
2018-09-04T01:29:22.283Z,18.98
2018-09-04T01:31:52.470Z,18.94
2018-09-04T01:34:22.728Z,18.95
2018-09-04T01:36:53.152Z,18.93
2018-09-04T01:39:23.648Z,18.91
2018-09-04T01:41:53.858Z,18.87
2018-09-04T01:44:24.341Z,18.86
2018-09-04T01:46:54.887Z,18.86
2018-09-04T01:49:25.259Z,18.87
2018-09-04T01:51:55.599Z,18.90
2018-09-04T01:54:25.964Z,18.88
2018-09-04T01:56:56.490Z,18.84
2018-09-04T01:59:26.838Z,18.78
2018-09-04T02:01:57.415Z,18.78
2018-09-04T02:04:27.647Z,18.76
2018-09-04T02:06:58.030Z,18.74
2018-09-04T02:09:28.696Z,18.77
2018-09-04T02:11:59.220Z,18.77
2018-09-04T02:14:29.547Z,18.75
2018-09-04T02:17:01.517Z,18.79
2018-09-04T02:19:31.976Z,18.79
2018-09-04T02:22:02.335Z,18.78
2018-09-04T02:24:32.672Z,18.75
2018-09-04T02:27:02.922Z,18.73
2018-09-04T02:29:33.222Z,18.73
2018-09-04T02:32:03.622Z,18.74
2018-09-04T02:34:34.040Z,18.69
2018-09-04T02:37:04.415Z,18.67
2018-09-04T02:39:34.727Z,18.68
2018-09-04T02:42:05.226Z,18.62
2018-09-04T02:44:35.734Z,18.65
2018-09-04T02:47:06.228Z,18.58
2018-09-04T02:49:36.585Z,18.55
2018-09-04T02:52:07.113Z,18.49
2018-09-04T02:54:37.434Z,18.54
2018-09-04T02:57:07.834Z,18.52
2018-09-04T02:59:38.170Z,18.55
2018-09-04T03:02:08.428Z,18.56
2018-09-04T03:04:38.751Z,18.57
2018-09-04T03:07:09.164Z,18.56
2018-09-04T03:09:39.563Z,18.60
2018-09-04T03:12:10.191Z,18.57
2018-09-04T03:14:40.444Z,18.53
2018-09-04T03:17:10.729Z,18.58
2018-09-04T03:19:41.160Z,18.55
2018-09-04T03:22:11.618Z,18.49
2018-09-04T03:24:42.132Z,18.53
2018-09-04T03:27:12.491Z,18.58
2018-09-04T03:29:43.006Z,18.50
2018-09-04T03:32:13.536Z,18.48
2018-09-04T03:34:44.025Z,18.49
2018-09-04T03:37:14.677Z,18.53
2018-09-04T03:39:44.978Z,18.49
2018-09-04T03:42:16.520Z,18.46
2018-09-04T03:44:53.332Z,18.45
2018-09-04T03:47:23.668Z,18.43
2018-09-04T03:49:54.186Z,18.43
2018-09-04T03:52:24.837Z,18.45
2018-09-04T03:54:55.023Z,18.44
2018-09-04T03:57:25.399Z,18.47
2018-09-04T03:59:55.737Z,18.46
2018-09-04T04:02:26.321Z,18.48
2018-09-04T04:04:56.848Z,18.51
2018-09-04T04:07:27.181Z,18.56
2018-09-04T04:09:57.566Z,18.59
2018-09-04T04:12:27.854Z,18.57
2018-09-04T04:14:58.363Z,18.61
2018-09-04T04:17:28.854Z,18.55
2018-09-04T04:19:59.091Z,18.55
2018-09-04T04:22:29.339Z,18.55
2018-09-04T04:24:59.752Z,18.56
2018-09-04T04:27:30.063Z,18.48
2018-09-04T04:30:00.471Z,18.49
2018-09-04T04:32:30.698Z,18.48
2018-09-04T04:35:01.248Z,18.52
2018-09-04T04:37:31.727Z,18.51
2018-09-04T04:40:02.168Z,18.57
2018-09-04T04:42:32.421Z,18.57
2018-09-04T04:45:02.850Z,18.58
2018-09-04T04:47:38.047Z,18.63
2018-09-04T04:50:08.584Z,18.67
2018-09-04T04:52:39.589Z,18.69
2018-09-04T04:55:10.149Z,18.73
2018-09-04T04:57:40.432Z,18.74
2018-09-04T05:00:10.861Z,18.77
2018-09-04T05:02:41.563Z,18.84
2018-09-04T05:05:12.034Z,18.85
2018-09-04T05:07:42.471Z,18.81
2018-09-04T05:10:12.903Z,18.81
2018-09-04T05:12:43.270Z,18.83
2018-09-04T05:15:13.758Z,18.89
2018-09-04T05:17:44.159Z,18.91
2018-09-04T05:20:17.602Z,18.99
2018-09-04T05:22:47.990Z,19.00
2018-09-04T05:25:18.339Z,19.06
2018-09-04T05:27:48.610Z,18.99
2018-09-04T05:30:19.120Z,19.06
2018-09-04T05:32:59.361Z,19.05
2018-09-04T05:35:35.257Z,19.07
2018-09-04T05:38:05.714Z,19.17
2018-09-04T05:40:36.028Z,19.17
2018-09-04T05:43:08.118Z,19.16
2018-09-04T05:45:39.230Z,19.15
2018-09-04T05:48:11.470Z,19.11
2018-09-04T05:50:41.914Z,19.14
2018-09-04T05:53:12.480Z,19.15
2018-09-04T05:55:43.113Z,19.17
2018-09-04T05:58:13.590Z,19.16
2018-09-04T06:00:46.289Z,19.14
2018-09-04T06:03:17.859Z,19.19
2018-09-04T06:05:48.112Z,19.24
2018-09-04T06:08:18.608Z,19.34
2018-09-04T06:10:49.049Z,19.42
2018-09-04T06:13:19.555Z,19.47
2018-09-04T06:15:50.069Z,19.59
2018-09-04T06:18:20.601Z,19.65
2018-09-04T06:20:51.158Z,19.68
2018-09-04T06:23:21.376Z,19.71
2018-09-04T06:25:51.799Z,19.81
2018-09-04T06:28:22.345Z,19.84
2018-09-04T06:30:52.961Z,19.93
2018-09-04T06:33:23.379Z,19.95
2018-09-04T06:35:54.272Z,20.01
2018-09-04T06:38:24.666Z,20.04
2018-09-04T06:40:55.192Z,20.17
2018-09-04T06:43:25.394Z,20.33
2018-09-04T06:45:55.790Z,20.47
2018-09-04T06:48:26.574Z,20.54
2018-09-04T06:50:57.776Z,20.57
2018-09-04T06:53:28.305Z,20.68
2018-09-04T06:55:58.905Z,20.72
2018-09-04T06:58:29.310Z,20.73
2018-09-04T07:00:59.538Z,20.56
2018-09-04T07:03:29.862Z,20.61
2018-09-04T07:06:00.321Z,20.65
2018-09-04T07:08:30.863Z,20.73
2018-09-04T07:11:01.485Z,20.70
2018-09-04T07:13:31.751Z,20.74
2018-09-04T07:16:03.032Z,20.76
2018-09-04T07:18:33.352Z,20.83
2018-09-04T07:21:04.112Z,20.84
2018-09-04T07:23:35.371Z,20.91
2018-09-04T07:26:05.719Z,21.06
2018-09-04T07:28:35.959Z,21.21
2018-09-04T07:31:06.602Z,21.28
2018-09-04T07:33:37.092Z,21.30
2018-09-04T07:36:07.960Z,21.37
2018-09-04T07:38:38.352Z,21.53
2018-09-04T07:41:08.826Z,21.60
2018-09-04T07:43:39.484Z,21.75
2018-09-04T07:46:10.029Z,21.75
2018-09-04T07:48:40.683Z,21.67
2018-09-04T07:51:10.937Z,21.52
2018-09-04T07:53:41.402Z,21.45
2018-09-04T07:56:11.944Z,20.99
2018-09-04T07:58:42.403Z,21.19
2018-09-04T08:01:12.859Z,21.31
2018-09-04T08:03:43.156Z,21.37
2018-09-04T08:06:13.586Z,21.34
2018-09-04T08:08:43.986Z,21.24
2018-09-04T08:11:17.359Z,21.34
2018-09-04T08:13:47.835Z,21.31
2018-09-04T08:16:18.198Z,21.30
2018-09-04T08:18:48.472Z,21.44
2018-09-04T08:21:19.024Z,21.52
2018-09-04T08:23:49.555Z,21.57
2018-09-04T08:26:21.420Z,21.81
2018-09-04T08:28:51.941Z,22.03
2018-09-04T08:31:22.515Z,22.00
2018-09-04T08:33:52.890Z,21.95
2018-09-04T08:36:23.217Z,21.69
2018-09-04T08:38:53.707Z,21.77
2018-09-04T08:41:24.406Z,21.84
2018-09-04T08:43:54.664Z,21.84
2018-09-04T08:46:25.268Z,21.77
2018-09-04T08:48:55.648Z,21.88
2018-09-04T08:51:25.883Z,21.88
2018-09-04T08:53:56.576Z,21.85
2018-09-04T08:56:27.470Z,21.91
2018-09-04T08:58:58.109Z,22.06
2018-09-04T09:01:28.582Z,22.19
2018-09-04T09:03:58.970Z,22.36
2018-09-04T09:06:29.456Z,22.49
2018-09-04T09:09:00.098Z,22.54
2018-09-04T09:11:30.565Z,22.64
2018-09-04T09:14:01.163Z,22.69
2018-09-04T09:16:31.544Z,22.69
2018-09-04T09:19:02.123Z,22.64
2018-09-04T09:21:32.371Z,22.57
2018-09-04T09:24:02.781Z,22.62
2018-09-04T09:26:33.214Z,22.49
2018-09-04T09:29:10.260Z,22.36
2018-09-04T09:31:40.590Z,22.13
2018-09-04T09:34:11.270Z,21.93
2018-09-04T09:36:41.987Z,21.63
2018-09-04T09:39:12.189Z,21.58
2018-09-04T09:41:42.554Z,21.60
2018-09-04T09:44:13.049Z,21.67
2018-09-04T09:46:43.628Z,21.71
2018-09-04T09:49:14.164Z,21.78
2018-09-04T09:51:44.516Z,21.93
2018-09-04T09:54:14.855Z,22.33
2018-09-04T09:56:45.200Z,22.57
2018-09-04T09:59:15.594Z,22.96
2018-09-04T10:01:50.955Z,23.08
2018-09-04T10:04:21.740Z,23.01
2018-09-04T10:06:52.522Z,23.03
2018-09-04T10:09:23.055Z,22.92
2018-09-04T10:11:53.378Z,22.80
2018-09-04T10:14:23.949Z,23.38
2018-09-04T10:16:54.621Z,23.67
2018-09-04T10:19:25.213Z,23.88
2018-09-04T10:21:55.582Z,23.75
2018-09-04T10:24:26.105Z,23.48
2018-09-04T10:26:56.637Z,23.56
2018-09-04T10:29:27.431Z,23.45
2018-09-04T10:31:58.042Z,23.37
2018-09-04T10:34:28.552Z,23.44
2018-09-04T10:36:58.771Z,23.50
2018-09-04T10:39:34.383Z,23.51
2018-09-04T10:42:04.739Z,23.50
2018-09-04T10:44:35.888Z,23.53
2018-09-04T10:47:06.169Z,23.56
2018-09-04T10:49:36.517Z,23.60
2018-09-04T10:52:07.336Z,23.58
2018-09-04T10:54:37.876Z,23.61
2018-09-04T10:57:08.900Z,23.58
2018-09-04T10:59:39.519Z,23.63
2018-09-04T11:02:10.106Z,23.75
2018-09-04T11:04:40.687Z,23.75
2018-09-04T11:07:11.141Z,23.91
2018-09-04T11:09:41.737Z,24.08
2018-09-04T11:12:11.945Z,24.05
2018-09-04T11:14:42.293Z,24.24
2018-09-04T11:17:12.585Z,24.42
2018-09-04T11:19:42.908Z,24.49
2018-09-04T11:22:13.309Z,24.49
2018-09-04T11:24:43.931Z,24.72
2018-09-04T11:27:14.400Z,25.00
2018-09-04T11:29:45.013Z,24.87
2018-09-04T11:32:15.326Z,24.96
2018-09-04T11:34:45.632Z,25.29
2018-09-04T11:37:16.078Z,25.17
2018-09-04T11:39:46.482Z,24.94
2018-09-04T11:42:17.719Z,25.11
2018-09-04T11:44:48.142Z,24.84
2018-09-04T11:47:18.684Z,24.81
2018-09-04T11:49:49.240Z,24.86
2018-09-04T11:52:19.658Z,25.17
2018-09-04T11:54:50.138Z,25.00
2018-09-04T11:57:20.555Z,25.33
2018-09-04T11:59:51.441Z,25.44
2018-09-04T12:02:26.892Z,25.50
2018-09-04T12:04:57.206Z,25.79
2018-09-04T12:07:27.765Z,26.18
2018-09-04T12:09:58.231Z,26.62
2018-09-04T12:12:33.208Z,26.70
2018-09-04T12:15:03.559Z,26.59
2018-09-04T12:17:33.874Z,26.79
2018-09-04T12:21:09.631Z,27.02
2018-09-04T12:23:40.423Z,27.17
2018-09-04T12:26:11.841Z,27.67
2018-09-04T12:28:42.277Z,27.93
2018-09-04T12:31:12.931Z,28.06
2018-09-04T12:33:43.470Z,28.47
2018-09-04T12:36:13.977Z,29.49
2018-09-04T12:38:44.683Z,30.18
2018-09-04T12:41:15.359Z,30.63
2018-09-04T12:43:45.844Z,30.42
2018-09-04T12:46:16.003Z,29.95
2018-09-04T12:48:50.572Z,30.18
2018-09-04T12:51:21.370Z,31.04
2018-09-04T12:53:51.705Z,31.76
2018-09-04T12:56:22.018Z,32.99
2018-09-04T12:58:52.528Z,34.16
2018-09-04T13:01:23.041Z,34.88
2018-09-04T13:03:53.602Z,35.09
2018-09-04T13:06:23.920Z,36.37
2018-09-04T13:08:54.608Z,39.58
2018-09-04T13:11:25.008Z,42.84
2018-09-04T13:13:55.635Z,42.05
2018-09-04T13:16:26.225Z,39.79
2018-09-04T13:18:56.599Z,38.05
2018-09-04T13:21:27.111Z,36.76
2018-09-04T13:23:57.588Z,35.67
2018-09-04T13:26:28.120Z,35.13
2018-09-04T13:28:58.763Z,34.65
2018-09-04T13:31:29.296Z,34.01
2018-09-04T13:33:59.607Z,33.12
2018-09-04T13:36:30.100Z,34.62
2018-09-04T13:39:00.408Z,34.06
2018-09-04T13:41:33.467Z,34.04
2018-09-04T13:44:04.092Z,33.70
2018-09-04T13:46:34.402Z,32.79
2018-09-04T13:49:05.172Z,32.07
2018-09-04T13:51:35.930Z,31.56
2018-09-04T13:54:06.022Z,31.79
2018-09-04T13:56:36.164Z,32.14
2018-09-04T13:59:06.210Z,31.69
2018-09-04T14:01:36.768Z,30.60
2018-09-04T14:04:07.242Z,29.72
2018-09-04T14:06:37.288Z,29.65
2018-09-04T14:09:08.657Z,29.74
2018-09-04T14:11:39.524Z,29.67
2018-09-04T14:14:09.983Z,29.55
2018-09-04T14:16:43.150Z,29.13
2018-09-04T14:19:11.612Z,28.79
2018-09-04T14:21:42.232Z,28.59
2018-09-04T14:24:12.489Z,28.52
2018-09-04T14:26:42.723Z,28.06
2018-09-04T14:29:53.160Z,28.04
2018-09-04T14:31:43.809Z,29.25
2018-09-04T14:34:14.380Z,30.47
2018-09-04T14:36:45.048Z,30.35
2018-09-04T14:39:15.345Z,30.04
2018-09-04T14:41:45.357Z,29.62
2018-09-04T14:44:15.386Z,30.17
2018-09-04T14:46:46.264Z,31.81
2018-09-04T14:49:16.376Z,34.27
2018-09-04T14:51:46.696Z,35.84
2018-09-04T14:54:16.640Z,36.42
2018-09-04T14:56:46.673Z,35.20
2018-09-04T14:59:16.753Z,33.71
2018-09-04T15:01:50.933Z,32.48
2018-09-04T15:04:21.033Z,31.38
2018-09-04T15:06:50.975Z,30.31
2018-09-04T15:09:20.893Z,30.30
2018-09-04T15:11:50.845Z,31.05
2018-09-04T15:14:20.776Z,31.16
2018-09-04T15:16:51.436Z,30.70
2018-09-04T15:19:21.368Z,30.09
2018-09-04T15:21:51.314Z,29.61
2018-09-04T15:24:21.210Z,29.35
2018-09-04T15:26:51.433Z,28.84
2018-09-04T15:29:21.467Z,28.20
2018-09-04T15:31:51.414Z,27.83
2018-09-04T15:34:21.363Z,27.54
2018-09-04T15:36:51.344Z,27.11
2018-09-04T15:39:21.313Z,26.75
2018-09-04T15:41:51.282Z,26.61
2018-09-04T15:44:21.285Z,26.52
2018-09-04T15:46:51.235Z,26.30
2018-09-04T15:49:26.300Z,26.16
2018-09-04T15:51:56.318Z,26.06
2018-09-04T15:54:26.708Z,25.87
2018-09-04T15:56:56.696Z,25.86
2018-09-04T15:59:26.700Z,25.71
2018-09-04T16:01:57.025Z,25.59
2018-09-04T16:04:27.396Z,25.44
2018-09-04T16:06:57.828Z,25.29
2018-09-04T16:09:28.386Z,25.23
2018-09-04T16:11:58.915Z,25.28
2018-09-04T16:14:29.677Z,25.16
2018-09-04T16:17:00.201Z,25.17
2018-09-04T16:19:30.759Z,25.17
2018-09-04T16:22:02.139Z,25.04
2018-09-04T16:24:32.660Z,24.87
2018-09-04T16:27:08.468Z,24.74
2018-09-04T16:29:39.753Z,24.70
2018-09-04T16:32:16.932Z,24.69
2018-09-04T16:34:47.004Z,24.46
2018-09-04T16:37:16.958Z,24.37
2018-09-04T16:39:46.938Z,24.24
2018-09-04T16:42:16.955Z,24.11
2018-09-04T16:44:47.311Z,24.06
2018-09-04T16:47:20.263Z,23.92
2018-09-04T16:49:50.952Z,23.90
2018-09-04T16:52:21.481Z,23.87
2018-09-04T16:54:52.410Z,23.87
2018-09-04T16:57:22.812Z,23.89
2018-09-04T16:59:53.286Z,23.87
2018-09-04T17:02:24.121Z,23.78
2018-09-04T17:04:54.460Z,23.75
2018-09-04T17:07:26.354Z,23.69
2018-09-04T17:09:56.903Z,23.60
2018-09-04T17:12:27.507Z,23.57
2018-09-04T17:14:57.989Z,23.56
2018-09-04T17:17:28.398Z,23.50
2018-09-04T17:19:59.049Z,23.45
2018-09-04T17:22:29.638Z,23.40
2018-09-04T17:25:00.109Z,23.37
2018-09-04T17:27:30.831Z,23.33
2018-09-04T17:30:01.198Z,23.23
2018-09-04T17:32:31.756Z,23.21
2018-09-04T17:35:05.764Z,23.19
2018-09-04T17:37:36.192Z,23.11
2018-09-04T17:40:06.638Z,23.14
2018-09-04T17:42:37.296Z,23.09
2018-09-04T17:45:07.725Z,23.06
2018-09-04T17:47:38.222Z,23.01
2018-09-04T17:50:08.709Z,23.01
2018-09-04T17:52:39.013Z,22.93
2018-09-04T17:55:09.006Z,22.92
2018-09-04T17:57:39.399Z,22.91
2018-09-04T18:00:09.807Z,22.86
2018-09-04T18:02:39.796Z,22.88
2018-09-04T18:05:09.827Z,22.84
2018-09-04T18:07:39.967Z,22.79
2018-09-04T18:10:09.983Z,22.72
2018-09-04T18:12:40.166Z,22.72
2018-09-04T18:15:10.489Z,22.68
2018-09-04T18:17:41.345Z,22.63
2018-09-04T18:20:11.774Z,22.58
2018-09-04T18:22:42.802Z,22.51
2018-09-04T18:25:13.583Z,22.41
2018-09-04T18:27:44.264Z,22.31
2018-09-04T18:30:14.786Z,22.30
2018-09-04T18:32:45.295Z,22.16
2018-09-04T18:35:15.933Z,22.14
2018-09-04T18:37:46.279Z,22.11
2018-09-04T18:40:16.767Z,21.98
2018-09-04T18:42:48.092Z,21.88
2018-09-04T18:45:52.389Z,21.80
2018-09-04T18:48:22.934Z,21.75
2018-09-04T18:50:53.286Z,21.70
2018-09-04T18:53:23.695Z,21.58
2018-09-04T18:55:54.147Z,21.55
2018-09-04T18:58:25.358Z,21.47
2018-09-04T19:00:55.959Z,21.40
2018-09-04T19:03:26.534Z,21.42
2018-09-04T19:05:56.907Z,21.35
2018-09-04T19:08:27.346Z,21.33
2018-09-04T19:10:57.777Z,21.30
2018-09-04T19:13:28.307Z,21.28
2018-09-04T19:15:58.728Z,21.22
2018-09-04T19:18:29.262Z,21.18
2018-09-04T19:21:30.960Z,21.19
2018-09-04T19:24:01.579Z,21.08
2018-09-04T19:26:32.067Z,21.08
2018-09-04T19:29:03.093Z,21.09
2018-09-04T19:31:33.519Z,21.04
2018-09-04T19:34:04.334Z,20.93
2018-09-04T19:36:34.836Z,20.93
2018-09-04T19:39:11.013Z,20.97
2018-09-04T19:41:42.349Z,21.01
2018-09-04T19:44:12.947Z,20.91
2018-09-04T19:46:43.253Z,20.92
2018-09-04T19:49:13.809Z,20.85
2018-09-04T19:51:44.228Z,20.86
2018-09-04T19:54:15.329Z,20.86
2018-09-04T19:56:45.759Z,20.84
2018-09-04T19:59:16.358Z,20.75
2018-09-04T20:01:46.764Z,20.70
2018-09-04T20:04:17.119Z,20.67
2018-09-04T20:06:47.696Z,20.66
2018-09-04T20:09:18.354Z,20.67
2018-09-04T20:11:48.836Z,20.62
2018-09-04T20:14:19.275Z,20.61
2018-09-04T20:16:49.730Z,20.57
2018-09-04T20:19:20.355Z,20.53
2018-09-04T20:21:50.815Z,20.49
2018-09-04T20:24:21.291Z,20.47
2018-09-04T20:26:51.827Z,20.49
2018-09-04T20:29:22.232Z,20.43
2018-09-04T20:31:52.650Z,20.41
2018-09-04T20:34:23.218Z,20.33
2018-09-04T20:36:53.655Z,20.28
2018-09-04T20:39:23.910Z,20.27
2018-09-04T20:41:54.491Z,20.23
2018-09-04T20:44:24.841Z,20.17
2018-09-04T20:46:55.289Z,20.16
2018-09-04T20:49:25.759Z,20.15
2018-09-04T20:51:56.244Z,20.10
2018-09-04T20:54:26.525Z,20.03
2018-09-04T20:57:34.237Z,20.07
2018-09-04T21:00:22.346Z,20.08
2018-09-04T21:03:09.088Z,20.08
2018-09-04T21:05:55.984Z,20.04
2018-09-04T21:08:56.877Z,20.05
2018-09-04T21:11:27.382Z,20.07
2018-09-04T21:13:57.725Z,20.07
2018-09-04T21:16:28.268Z,20.11
2018-09-04T21:18:58.744Z,20.16
2018-09-04T21:21:30.223Z,20.22
2018-09-04T21:24:00.717Z,20.27
2018-09-04T21:26:31.096Z,20.33
2018-09-04T21:29:01.821Z,20.30
2018-09-04T21:31:32.227Z,20.34
2018-09-04T21:34:02.430Z,20.32
2018-09-04T21:36:32.964Z,20.34
2018-09-04T21:39:03.389Z,20.38
2018-09-04T21:41:33.719Z,20.36
2018-09-04T21:44:04.102Z,20.35
2018-09-04T21:46:34.791Z,20.34
2018-09-04T21:49:05.162Z,20.29
2018-09-04T21:51:35.407Z,20.29
2018-09-04T21:54:05.804Z,20.33
2018-09-04T21:56:36.271Z,20.34
2018-09-04T21:59:06.799Z,20.35
2018-09-04T22:01:37.223Z,20.31
2018-09-04T22:04:07.728Z,20.28
2018-09-04T22:06:38.062Z,20.35
2018-09-04T22:09:08.940Z,20.45
2018-09-04T22:11:39.488Z,20.49
2018-09-04T22:14:09.896Z,20.43
2018-09-04T22:16:40.204Z,20.45
2018-09-04T22:19:10.635Z,20.42
2018-09-04T22:21:40.977Z,20.40
2018-09-04T22:24:11.379Z,20.35
2018-09-04T22:26:41.795Z,20.28
2018-09-04T22:29:11.978Z,20.29
2018-09-04T22:31:42.359Z,20.32
2018-09-04T22:34:12.699Z,20.34
2018-09-04T22:36:42.974Z,20.24
2018-09-04T22:39:13.460Z,20.36
2018-09-04T22:41:43.779Z,20.41
2018-09-04T22:44:14.460Z,20.41
2018-09-04T22:46:44.900Z,20.38
2018-09-04T22:49:15.193Z,20.35
2018-09-04T22:51:45.711Z,20.30
2018-09-04T22:54:16.659Z,20.32
2018-09-04T22:56:46.901Z,20.31
2018-09-04T22:59:17.282Z,20.29
2018-09-04T23:01:47.682Z,20.21
2018-09-04T23:04:18.143Z,20.21
2018-09-04T23:06:48.364Z,20.16
2018-09-04T23:09:18.947Z,20.12
2018-09-04T23:11:49.289Z,20.11
2018-09-04T23:14:20.090Z,20.11
2018-09-04T23:16:50.450Z,20.07
2018-09-04T23:19:20.871Z,20.03
2018-09-04T23:21:51.381Z,19.85
2018-09-04T23:24:24.402Z,19.80
2018-09-04T23:26:54.617Z,19.74
2018-09-04T23:29:25.935Z,19.70
2018-09-04T23:31:56.429Z,19.70
2018-09-04T23:34:26.729Z,19.71
2018-09-04T23:36:57.025Z,19.72
2018-09-04T23:39:27.414Z,19.72
2018-09-04T23:41:57.796Z,19.70
2018-09-04T23:44:28.287Z,19.67
2018-09-04T23:46:58.499Z,19.63
2018-09-04T23:49:29.382Z,19.59
2018-09-04T23:51:59.647Z,19.58
2018-09-04T23:54:30.158Z,19.53
2018-09-04T23:57:00.485Z,19.51
2018-09-04T23:59:30.990Z,19.46
